sensor_id;sensor_type;location;lat;lon;timestamp;pressure;altitude;pressure_sealevel;temperature;humidity
9740;BME280;4909;42.680;26.324;2023-09-19T00:00:25;98968.25;;;19.26;75.35
9740;BME280;4909;42.680;26.324;2023-09-19T00:02:54;98986.50;;;19.33;75.98
9740;BME280;4909;42.680;26.324;2023-09-19T00:05:22;98971.47;;;19.31;76.36
9740;BME280;4909;42.680;26.324;2023-09-19T00:07:53;98963.84;;;19.25;76.01
9740;BME280;4909;42.680;26.324;2023-09-19T00:10:20;98949.41;;;19.26;75.70
9740;BME280;4909;42.680;26.324;2023-09-19T00:12:50;98979.25;;;19.46;74.88
9740;BME280;4909;42.680;26.324;2023-09-19T00:15:18;98976.25;;;19.38;76.64
9740;BME280;4909;42.680;26.324;2023-09-19T00:17:45;98979.22;;;19.23;75.82
9740;BME280;4909;42.680;26.324;2023-09-19T00:20:14;98974.94;;;18.84;77.36
9740;BME280;4909;42.680;26.324;2023-09-19T00:22:42;98978.84;;;18.80;76.50
9740;BME280;4909;42.680;26.324;2023-09-19T00:25:10;98974.66;;;18.76;77.67
9740;BME280;4909;42.680;26.324;2023-09-19T00:27:38;98980.13;;;18.87;77.48
9740;BME280;4909;42.680;26.324;2023-09-19T00:30:08;98969.28;;;18.76;77.82
9740;BME280;4909;42.680;26.324;2023-09-19T00:32:40;98975.47;;;18.89;78.18
9740;BME280;4909;42.680;26.324;2023-09-19T00:35:07;98983.69;;;18.87;76.16
9740;BME280;4909;42.680;26.324;2023-09-19T00:37:37;98980.75;;;18.90;76.49
9740;BME280;4909;42.680;26.324;2023-09-19T00:40:07;98984.25;;;19.03;76.84
9740;BME280;4909;42.680;26.324;2023-09-19T00:42:37;98979.63;;;19.05;76.04
9740;BME280;4909;42.680;26.324;2023-09-19T00:45:06;98973.81;;;19.12;76.01
9740;BME280;4909;42.680;26.324;2023-09-19T00:47:35;98986.09;;;19.27;75.89
9740;BME280;4909;42.680;26.324;2023-09-19T00:50:03;98981.28;;;19.19;75.23
9740;BME280;4909;42.680;26.324;2023-09-19T00:52:33;98979.41;;;19.08;76.38
9740;BME280;4909;42.680;26.324;2023-09-19T00:55:04;98959.41;;;19.00;75.38
9740;BME280;4909;42.680;26.324;2023-09-19T00:57:32;98970.41;;;18.97;75.89
9740;BME280;4909;42.680;26.324;2023-09-19T01:00:00;98974.78;;;18.98;76.62
9740;BME280;4909;42.680;26.324;2023-09-19T01:02:31;98971.78;;;18.66;76.21
9740;BME280;4909;42.680;26.324;2023-09-19T01:04:58;98983.81;;;18.60;77.42
9740;BME280;4909;42.680;26.324;2023-09-19T01:07:25;98986.84;;;18.56;76.72
9740;BME280;4909;42.680;26.324;2023-09-19T01:09:52;98981.13;;;18.60;77.32
9740;BME280;4909;42.680;26.324;2023-09-19T01:12:30;98983.81;;;18.60;77.21
9740;BME280;4909;42.680;26.324;2023-09-19T01:15:04;98984.34;;;18.78;77.03
9740;BME280;4909;42.680;26.324;2023-09-19T01:17:38;98975.47;;;18.89;76.04
9740;BME280;4909;42.680;26.324;2023-09-19T01:20:27;98978.31;;;19.11;75.10
9740;BME280;4909;42.680;26.324;2023-09-19T01:23:06;98983.47;;;19.14;74.60
9740;BME280;4909;42.680;26.324;2023-09-19T01:26:06;98989.47;;;19.18;74.68
9740;BME280;4909;42.680;26.324;2023-09-19T01:28:54;98985.53;;;19.10;74.25
9740;BME280;4909;42.680;26.324;2023-09-19T01:31:29;98979.34;;;18.97;74.77
9740;BME280;4909;42.680;26.324;2023-09-19T01:34:00;98978.72;;;18.81;76.01
9740;BME280;4909;42.680;26.324;2023-09-19T01:36:31;98965.28;;;18.81;75.32
9740;BME280;4909;42.680;26.324;2023-09-19T01:39:01;98981.50;;;18.92;74.75
9740;BME280;4909;42.680;26.324;2023-09-19T01:41:45;98975.50;;;18.76;75.78
9740;BME280;4909;42.680;26.324;2023-09-19T01:44:19;98970.28;;;18.62;75.39
9740;BME280;4909;42.680;26.324;2023-09-19T01:46:49;98972.19;;;18.73;75.91
9740;BME280;4909;42.680;26.324;2023-09-19T01:49:25;98969.19;;;18.64;75.32
9740;BME280;4909;42.680;26.324;2023-09-19T01:52:00;98977.56;;;18.73;74.95
9740;BME280;4909;42.680;26.324;2023-09-19T01:54:33;98972.63;;;18.66;76.64
9740;BME280;4909;42.680;26.324;2023-09-19T01:57:07;98948.00;;;18.60;75.87
9740;BME280;4909;42.680;26.324;2023-09-19T01:59:43;98966.47;;;18.77;75.19
9740;BME280;4909;42.680;26.324;2023-09-19T02:02:14;98967.03;;;18.70;75.63
9740;BME280;4909;42.680;26.324;2023-09-19T02:04:42;98963.50;;;18.56;75.52
9740;BME280;4909;42.680;26.324;2023-09-19T02:07:09;98968.31;;;18.64;75.39
9740;BME280;4909;42.680;26.324;2023-09-19T02:09:35;98956.84;;;18.62;75.92
9740;BME280;4909;42.680;26.324;2023-09-19T02:12:05;98963.19;;;18.61;74.96
9740;BME280;4909;42.680;26.324;2023-09-19T02:14:32;98965.63;;;18.51;75.01
9740;BME280;4909;42.680;26.324;2023-09-19T02:16:59;98967.78;;;18.46;75.77
9740;BME280;4909;42.680;26.324;2023-09-19T02:19:28;98971.56;;;18.56;75.81
9740;BME280;4909;42.680;26.324;2023-09-19T02:21:55;98954.00;;;18.51;75.23
9740;BME280;4909;42.680;26.324;2023-09-19T02:24:22;98955.44;;;18.44;75.98
9740;BME280;4909;42.680;26.324;2023-09-19T02:26:52;98964.88;;;18.49;76.26
9740;BME280;4909;42.680;26.324;2023-09-19T02:29:20;98952.66;;;18.58;75.83
9740;BME280;4909;42.680;26.324;2023-09-19T02:31:47;98955.75;;;18.64;75.60
9740;BME280;4909;42.680;26.324;2023-09-19T02:34:14;98947.81;;;18.63;75.27
9740;BME280;4909;42.680;26.324;2023-09-19T02:36:43;98942.53;;;18.49;75.59
9740;BME280;4909;42.680;26.324;2023-09-19T02:39:11;98948.13;;;18.58;75.56
9740;BME280;4909;42.680;26.324;2023-09-19T02:41:38;98944.59;;;18.58;75.42
9740;BME280;4909;42.680;26.324;2023-09-19T02:44:07;98953.16;;;18.50;75.96
9740;BME280;4909;42.680;26.324;2023-09-19T02:46:34;98944.59;;;18.58;76.19
9740;BME280;4909;42.680;26.324;2023-09-19T02:49:01;98956.59;;;18.78;75.33
9740;BME280;4909;42.680;26.324;2023-09-19T02:51:30;98938.56;;;18.91;74.57
9740;BME280;4909;42.680;26.324;2023-09-19T02:53:59;98950.28;;;19.02;74.37
9740;BME280;4909;42.680;26.324;2023-09-19T02:56:26;98940.31;;;18.92;74.54
9740;BME280;4909;42.680;26.324;2023-09-19T02:58:53;98918.19;;;18.76;75.23
9740;BME280;4909;42.680;26.324;2023-09-19T03:01:20;98936.31;;;18.97;75.17
9740;BME280;4909;42.680;26.324;2023-09-19T03:03:47;98941.91;;;19.18;75.14
9740;BME280;4909;42.680;26.324;2023-09-19T03:06:15;98935.38;;;19.09;74.27
9740;BME280;4909;42.680;26.324;2023-09-19T03:08:45;98936.13;;;19.12;74.93
9740;BME280;4909;42.680;26.324;2023-09-19T03:11:16;98912.03;;;19.10;73.46
9740;BME280;4909;42.680;26.324;2023-09-19T03:13:51;98927.81;;;19.15;75.03
9740;BME280;4909;42.680;26.324;2023-09-19T03:16:18;98899.59;;;18.96;75.67
9740;BME280;4909;42.680;26.324;2023-09-19T03:18:47;98931.09;;;19.07;74.49
9740;BME280;4909;42.680;26.324;2023-09-19T03:21:15;98917.50;;;19.08;75.23
9740;BME280;4909;42.680;26.324;2023-09-19T03:23:42;98925.59;;;19.08;75.72
9740;BME280;4909;42.680;26.324;2023-09-19T03:26:11;98910.81;;;19.14;75.16
9740;BME280;4909;42.680;26.324;2023-09-19T03:28:41;98901.19;;;19.23;74.51
9740;BME280;4909;42.680;26.324;2023-09-19T03:31:09;98922.44;;;19.15;75.28
9740;BME280;4909;42.680;26.324;2023-09-19T03:33:36;98902.47;;;19.06;76.48
9740;BME280;4909;42.680;26.324;2023-09-19T03:36:04;98914.81;;;19.32;75.25
9740;BME280;4909;42.680;26.324;2023-09-19T03:38:32;98884.88;;;19.13;75.01
9740;BME280;4909;42.680;26.324;2023-09-19T03:41:00;98908.56;;;19.32;74.84
9740;BME280;4909;42.680;26.324;2023-09-19T03:43:26;98913.28;;;19.41;75.78
9740;BME280;4909;42.680;26.324;2023-09-19T03:45:55;98914.34;;;19.38;75.74
9740;BME280;4909;42.680;26.324;2023-09-19T03:48:22;98919.22;;;19.33;75.91
9740;BME280;4909;42.680;26.324;2023-09-19T03:50:49;98923.47;;;19.48;76.04
9740;BME280;4909;42.680;26.324;2023-09-19T03:53:16;98907.50;;;19.34;76.20
9740;BME280;4909;42.680;26.324;2023-09-19T03:55:44;98919.06;;;19.47;75.89
9740;BME280;4909;42.680;26.324;2023-09-19T03:58:12;98924.50;;;19.35;75.47
9740;BME280;4909;42.680;26.324;2023-09-19T04:00:39;98927.91;;;19.37;75.98
9740;BME280;4909;42.680;26.324;2023-09-19T04:03:07;98926.84;;;19.39;75.27
9740;BME280;4909;42.680;26.324;2023-09-19T04:05:36;98922.72;;;19.23;75.79
9740;BME280;4909;42.680;26.324;2023-09-19T04:08:03;98931.22;;;19.05;76.36
9740;BME280;4909;42.680;26.324;2023-09-19T04:10:30;98933.88;;;18.82;77.31
9740;BME280;4909;42.680;26.324;2023-09-19T04:12:57;98933.25;;;18.78;77.55
9740;BME280;4909;42.680;26.324;2023-09-19T04:15:24;98908.00;;;18.55;77.65
9740;BME280;4909;42.680;26.324;2023-09-19T04:17:51;98932.19;;;18.68;78.17
9740;BME280;4909;42.680;26.324;2023-09-19T04:20:19;98933.47;;;18.75;77.80
9740;BME280;4909;42.680;26.324;2023-09-19T04:22:48;98931.22;;;18.69;78.25
9740;BME280;4909;42.680;26.324;2023-09-19T04:25:15;98937.06;;;18.63;78.52
9740;BME280;4909;42.680;26.324;2023-09-19T04:27:43;98928.00;;;18.51;78.50
9740;BME280;4909;42.680;26.324;2023-09-19T04:30:11;98934.47;;;18.49;79.30
9740;BME280;4909;42.680;26.324;2023-09-19T04:32:38;98932.09;;;18.57;79.66
9740;BME280;4909;42.680;26.324;2023-09-19T04:35:07;98923.28;;;18.67;78.76
9740;BME280;4909;42.680;26.324;2023-09-19T04:37:38;98909.06;;;18.65;77.97
9740;BME280;4909;42.680;26.324;2023-09-19T04:40:08;98932.97;;;18.57;78.63
9740;BME280;4909;42.680;26.324;2023-09-19T04:42:39;98935.22;;;18.63;78.31
9740;BME280;4909;42.680;26.324;2023-09-19T04:45:07;98924.56;;;18.62;78.51
9740;BME280;4909;42.680;26.324;2023-09-19T04:47:35;98931.34;;;18.67;78.31
9740;BME280;4909;42.680;26.324;2023-09-19T04:50:08;98927.59;;;18.57;78.74
9740;BME280;4909;42.680;26.324;2023-09-19T04:52:40;98927.91;;;18.53;78.45
9740;BME280;4909;42.680;26.324;2023-09-19T04:55:09;98925.88;;;18.44;79.19
9740;BME280;4909;42.680;26.324;2023-09-19T04:57:43;98918.56;;;18.33;79.83
9740;BME280;4909;42.680;26.324;2023-09-19T05:00:12;98922.75;;;18.37;80.03
9740;BME280;4909;42.680;26.324;2023-09-19T05:02:40;98917.47;;;18.48;80.09
9740;BME280;4909;42.680;26.324;2023-09-19T05:05:07;98924.25;;;18.41;79.57
9740;BME280;4909;42.680;26.324;2023-09-19T05:07:35;98923.28;;;18.55;80.16
9740;BME280;4909;42.680;26.324;2023-09-19T05:10:04;98914.34;;;18.54;79.69
9740;BME280;4909;42.680;26.324;2023-09-19T05:12:33;98910.72;;;18.55;80.00
9740;BME280;4909;42.680;26.324;2023-09-19T05:15:00;98917.47;;;18.61;79.22
9740;BME280;4909;42.680;26.324;2023-09-19T05:17:29;98925.88;;;18.56;79.39
9740;BME280;4909;42.680;26.324;2023-09-19T05:19:56;98930.38;;;18.43;80.13
9740;BME280;4909;42.680;26.324;2023-09-19T05:22:23;98918.91;;;18.54;80.01
9740;BME280;4909;42.680;26.324;2023-09-19T05:24:51;98928.47;;;18.58;79.74
9740;BME280;4909;42.680;26.324;2023-09-19T05:27:20;98931.53;;;18.64;79.71
9740;BME280;4909;42.680;26.324;2023-09-19T05:29:47;98931.00;;;18.59;79.90
9740;BME280;4909;42.680;26.324;2023-09-19T05:32:14;98919.81;;;18.65;79.77
9740;BME280;4909;42.680;26.324;2023-09-19T05:34:41;98920.38;;;18.94;78.90
9740;BME280;4909;42.680;26.324;2023-09-19T05:37:08;98928.25;;;19.32;78.06
9740;BME280;4909;42.680;26.324;2023-09-19T05:39:35;98913.81;;;19.46;77.09
9740;BME280;4909;42.680;26.324;2023-09-19T05:42:03;98923.53;;;19.71;76.33
9740;BME280;4909;42.680;26.324;2023-09-19T05:44:31;98926.84;;;19.63;76.69
9740;BME280;4909;42.680;26.324;2023-09-19T05:46:58;98910.28;;;19.57;76.62
9740;BME280;4909;42.680;26.324;2023-09-19T05:49:25;98920.72;;;19.72;75.75
9740;BME280;4909;42.680;26.324;2023-09-19T05:51:53;98923.72;;;19.91;75.29
9740;BME280;4909;42.680;26.324;2023-09-19T05:54:21;98926.56;;;20.12;74.49
9740;BME280;4909;42.680;26.324;2023-09-19T05:56:48;98930.47;;;20.19;74.28
9740;BME280;4909;42.680;26.324;2023-09-19T05:59:18;98889.22;;;20.08;74.17
9740;BME280;4909;42.680;26.324;2023-09-19T06:01:47;98919.84;;;20.29;74.08
9740;BME280;4909;42.680;26.324;2023-09-19T06:04:13;98917.19;;;20.40;73.71
9740;BME280;4909;42.680;26.324;2023-09-19T06:06:40;98915.84;;;20.46;73.42
9740;BME280;4909;42.680;26.324;2023-09-19T06:09:08;98915.56;;;20.60;72.43
9740;BME280;4909;42.680;26.324;2023-09-19T06:11:35;98931.75;;;20.71;72.47
9740;BME280;4909;42.680;26.324;2023-09-19T06:14:01;98930.16;;;20.79;72.28
9740;BME280;4909;42.680;26.324;2023-09-19T06:16:28;98930.50;;;20.86;71.98
9740;BME280;4909;42.680;26.324;2023-09-19T06:18:57;98930.72;;;20.94;72.11
9740;BME280;4909;42.680;26.324;2023-09-19T06:24:11;98932.13;;;21.32;70.52
9740;BME280;4909;42.680;26.324;2023-09-19T06:26:38;98922.00;;;21.45;69.93
9740;BME280;4909;42.680;26.324;2023-09-19T06:29:05;98926.97;;;21.60;69.47
9740;BME280;4909;42.680;26.324;2023-09-19T06:31:33;98932.59;;;21.68;69.23
9740;BME280;4909;42.680;26.324;2023-09-19T06:34:01;98933.19;;;21.93;68.45
9740;BME280;4909;42.680;26.324;2023-09-19T06:36:28;98933.72;;;22.07;68.24
9740;BME280;4909;42.680;26.324;2023-09-19T06:38:55;98927.72;;;22.25;67.63
9740;BME280;4909;42.680;26.324;2023-09-19T06:41:22;98909.16;;;22.41;66.26
9740;BME280;4909;42.680;26.324;2023-09-19T06:43:50;98923.41;;;22.73;65.71
9740;BME280;4909;42.680;26.324;2023-09-19T06:46:19;98924.44;;;22.91;64.48
9740;BME280;4909;42.680;26.324;2023-09-19T06:48:46;98928.16;;;23.00;64.93
9740;BME280;4909;42.680;26.324;2023-09-19T06:51:14;98923.06;;;23.07;64.62
9740;BME280;4909;42.680;26.324;2023-09-19T06:53:42;98918.63;;;23.15;64.47
9740;BME280;4909;42.680;26.324;2023-09-19T06:56:08;98917.09;;;23.32;63.78
9740;BME280;4909;42.680;26.324;2023-09-19T06:58:35;98917.56;;;23.47;63.44
9740;BME280;4909;42.680;26.324;2023-09-19T07:01:03;98907.72;;;23.55;62.88
9740;BME280;4909;42.680;26.324;2023-09-19T07:03:29;98919.53;;;23.73;61.58
9740;BME280;4909;42.680;26.324;2023-09-19T07:05:58;98913.25;;;23.82;61.66
9740;BME280;4909;42.680;26.324;2023-09-19T07:08:27;98925.66;;;24.04;60.35
9740;BME280;4909;42.680;26.324;2023-09-19T07:10:56;98925.06;;;24.20;59.70
9740;BME280;4909;42.680;26.324;2023-09-19T07:13:23;98937.13;;;24.35;58.64
9740;BME280;4909;42.680;26.324;2023-09-19T07:15:50;98930.16;;;24.33;57.50
9740;BME280;4909;42.680;26.324;2023-09-19T07:18:17;98914.44;;;24.36;58.48
9740;BME280;4909;42.680;26.324;2023-09-19T07:20:45;98912.47;;;24.29;56.49
9740;BME280;4909;42.680;26.324;2023-09-19T07:23:15;98926.63;;;24.59;57.58
9740;BME280;4909;42.680;26.324;2023-09-19T07:25:45;98925.44;;;24.72;56.20
9740;BME280;4909;42.680;26.324;2023-09-19T07:28:12;98923.69;;;24.80;56.24
9740;BME280;4909;42.680;26.324;2023-09-19T07:30:39;98915.91;;;24.67;56.45
9740;BME280;4909;42.680;26.324;2023-09-19T07:33:07;98919.09;;;24.81;56.03
9740;BME280;4909;42.680;26.324;2023-09-19T07:35:36;98918.78;;;24.93;56.13
9740;BME280;4909;42.680;26.324;2023-09-19T07:38:05;98911.09;;;24.89;56.23
9740;BME280;4909;42.680;26.324;2023-09-19T07:40:32;98917.50;;;24.97;54.75
9740;BME280;4909;42.680;26.324;2023-09-19T07:43:00;98919.50;;;25.58;53.09
9740;BME280;4909;42.680;26.324;2023-09-19T07:45:29;98908.16;;;26.58;49.65
9740;BME280;4909;42.680;26.324;2023-09-19T07:47:57;98915.41;;;28.79;44.79
9740;BME280;4909;42.680;26.324;2023-09-19T07:50:25;98916.97;;;30.26;38.64
9740;BME280;4909;42.680;26.324;2023-09-19T07:52:52;98896.47;;;30.74;36.52
9740;BME280;4909;42.680;26.324;2023-09-19T07:55:20;98916.06;;;32.00;34.19
9740;BME280;4909;42.680;26.324;2023-09-19T07:57:49;98892.19;;;32.84;32.29
9740;BME280;4909;42.680;26.324;2023-09-19T08:00:17;98873.88;;;33.04;31.87
9740;BME280;4909;42.680;26.324;2023-09-19T08:02:45;98905.53;;;33.28;30.94
9740;BME280;4909;42.680;26.324;2023-09-19T08:05:13;98913.31;;;33.92;30.29
9740;BME280;4909;42.680;26.324;2023-09-19T08:07:43;98880.72;;;33.22;31.72
9740;BME280;4909;42.680;26.324;2023-09-19T08:10:11;98897.19;;;34.09;30.54
9740;BME280;4909;42.680;26.324;2023-09-19T08:12:39;98891.06;;;34.39;29.62
9740;BME280;4909;42.680;26.324;2023-09-19T08:15:12;98885.81;;;32.43;32.52
9740;BME280;4909;42.680;26.324;2023-09-19T08:17:40;98863.28;;;30.69;34.78
9740;BME280;4909;42.680;26.324;2023-09-19T08:20:08;98869.78;;;30.24;37.32
9740;BME280;4909;42.680;26.324;2023-09-19T08:22:43;98878.38;;;29.38;39.19
9740;BME280;4909;42.680;26.324;2023-09-19T08:25:12;98882.94;;;28.76;40.16
9740;BME280;4909;42.680;26.324;2023-09-19T08:27:39;98870.50;;;27.94;42.59
9740;BME280;4909;42.680;26.324;2023-09-19T08:30:07;98864.69;;;27.48;43.98
9740;BME280;4909;42.680;26.324;2023-09-19T08:32:34;98868.59;;;27.30;44.84
9740;BME280;4909;42.680;26.324;2023-09-19T08:35:02;98843.34;;;27.03;46.02
9740;BME280;4909;42.680;26.324;2023-09-19T08:37:29;98863.34;;;27.77;45.47
9740;BME280;4909;42.680;26.324;2023-09-19T08:39:56;98866.59;;;27.56;43.73
9740;BME280;4909;42.680;26.324;2023-09-19T08:42:23;98864.97;;;27.13;44.53
9740;BME280;4909;42.680;26.324;2023-09-19T08:44:50;98866.53;;;26.73;45.49
9740;BME280;4909;42.680;26.324;2023-09-19T08:47:28;98849.94;;;26.93;46.22
9740;BME280;4909;42.680;26.324;2023-09-19T08:50:07;98858.97;;;26.93;46.13
9740;BME280;4909;42.680;26.324;2023-09-19T08:52:41;98860.91;;;27.17;45.52
9740;BME280;4909;42.680;26.324;2023-09-19T08:55:12;98853.56;;;27.17;46.27
9740;BME280;4909;42.680;26.324;2023-09-19T08:57:45;98859.56;;;27.45;46.56
9740;BME280;4909;42.680;26.324;2023-09-19T09:00:15;98811.34;;;27.46;44.52
9740;BME280;4909;42.680;26.324;2023-09-19T09:02:43;98849.56;;;27.62;44.94
9740;BME280;4909;42.680;26.324;2023-09-19T09:05:12;98829.56;;;27.21;45.35
9740;BME280;4909;42.680;26.324;2023-09-19T09:07:40;98839.00;;;27.59;45.29
9740;BME280;4909;42.680;26.324;2023-09-19T09:10:07;98814.41;;;27.75;44.35
9740;BME280;4909;42.680;26.324;2023-09-19T09:12:35;98841.66;;;28.07;42.63
9740;BME280;4909;42.680;26.324;2023-09-19T09:15:05;98843.47;;;28.39;42.22
9740;BME280;4909;42.680;26.324;2023-09-19T09:17:34;98841.16;;;28.20;43.92
9740;BME280;4909;42.680;26.324;2023-09-19T09:20:01;98837.28;;;27.50;46.78
9740;BME280;4909;42.680;26.324;2023-09-19T09:22:31;98845.47;;;26.83;49.29
9740;BME280;4909;42.680;26.324;2023-09-19T09:24:59;98837.25;;;26.67;50.95
9740;BME280;4909;42.680;26.324;2023-09-19T09:27:29;98805.88;;;26.13;51.36
9740;BME280;4909;42.680;26.324;2023-09-19T09:29:57;98826.59;;;26.14;53.66
9740;BME280;4909;42.680;26.324;2023-09-19T09:32:25;98793.63;;;25.83;53.15
9740;BME280;4909;42.680;26.324;2023-09-19T09:34:55;98826.09;;;25.85;54.19
9740;BME280;4909;42.680;26.324;2023-09-19T09:37:23;98819.59;;;26.04;54.41
9740;BME280;4909;42.680;26.324;2023-09-19T09:39:54;98814.72;;;25.64;55.53
9740;BME280;4909;42.680;26.324;2023-09-19T09:42:31;98820.06;;;25.73;57.11
9740;BME280;4909;42.680;26.324;2023-09-19T09:45:13;98818.41;;;26.14;55.73
9740;BME280;4909;42.680;26.324;2023-09-19T09:47:45;98824.72;;;26.15;53.84
9740;BME280;4909;42.680;26.324;2023-09-19T09:50:25;98824.72;;;26.15;55.01
9740;BME280;4909;42.680;26.324;2023-09-19T09:52:55;98817.16;;;26.01;55.24
9740;BME280;4909;42.680;26.324;2023-09-19T09:55:57;98819.09;;;25.82;55.12
9740;BME280;4909;42.680;26.324;2023-09-19T09:58:25;98791.00;;;26.00;53.95
9740;BME280;4909;42.680;26.324;2023-09-19T10:00:55;98810.44;;;26.13;53.79
9740;BME280;4909;42.680;26.324;2023-09-19T10:03:31;98806.88;;;26.12;53.55
9740;BME280;4909;42.680;26.324;2023-09-19T10:06:00;98811.72;;;26.26;53.29
9740;BME280;4909;42.680;26.324;2023-09-19T10:08:34;98802.88;;;26.24;53.14
9740;BME280;4909;42.680;26.324;2023-09-19T10:11:15;98804.25;;;26.03;53.15
9740;BME280;4909;42.680;26.324;2023-09-19T10:13:42;98798.78;;;25.94;53.23
9740;BME280;4909;42.680;26.324;2023-09-19T10:16:13;98803.94;;;26.06;54.27
9740;BME280;4909;42.680;26.324;2023-09-19T10:18:45;98797.22;;;25.92;55.04
9740;BME280;4909;42.680;26.324;2023-09-19T10:21:15;98801.59;;;26.11;53.54
9740;BME280;4909;42.680;26.324;2023-09-19T10:23:48;98800.09;;;26.16;52.25
9740;BME280;4909;42.680;26.324;2023-09-19T10:26:19;98808.41;;;26.15;51.84
9740;BME280;4909;42.680;26.324;2023-09-19T10:28:50;98785.94;;;25.79;52.82
9740;BME280;4909;42.680;26.324;2023-09-19T10:31:20;98774.22;;;25.78;51.49
9740;BME280;4909;42.680;26.324;2023-09-19T10:33:50;98785.25;;;26.11;51.86
9740;BME280;4909;42.680;26.324;2023-09-19T10:36:18;98785.13;;;26.20;51.64
9740;BME280;4909;42.680;26.324;2023-09-19T10:38:45;98784.19;;;26.29;50.36
9740;BME280;4909;42.680;26.324;2023-09-19T10:41:15;98785.31;;;26.19;50.45
9740;BME280;4909;42.680;26.324;2023-09-19T10:43:45;98764.25;;;25.95;50.59
9740;BME280;4909;42.680;26.324;2023-09-19T10:46:14;98768.31;;;25.91;51.68
9740;BME280;4909;42.680;26.324;2023-09-19T10:48:41;98760.47;;;25.80;52.19
9740;BME280;4909;42.680;26.324;2023-09-19T10:51:18;98765.34;;;25.76;51.86
9740;BME280;4909;42.680;26.324;2023-09-19T10:53:51;98740.56;;;25.79;50.87
9740;BME280;4909;42.680;26.324;2023-09-19T10:56:24;98746.28;;;25.68;50.98
9740;BME280;4909;42.680;26.324;2023-09-19T10:59:06;98740.88;;;25.50;51.16
9740;BME280;4909;42.680;26.324;2023-09-19T11:01:45;98730.13;;;25.67;50.21
9740;BME280;4909;42.680;26.324;2023-09-19T11:04:27;98747.78;;;25.63;50.91
9740;BME280;4909;42.680;26.324;2023-09-19T11:07:02;98744.31;;;25.78;50.87
9740;BME280;4909;42.680;26.324;2023-09-19T11:09:49;98720.28;;;25.48;50.24
9740;BME280;4909;42.680;26.324;2023-09-19T11:12:48;98735.41;;;25.68;51.87
9740;BME280;4909;42.680;26.324;2023-09-19T11:18:57;98727.59;;;25.65;51.93
9740;BME280;4909;42.680;26.324;2023-09-19T11:21:53;98715.47;;;25.60;53.00
9740;BME280;4909;42.680;26.324;2023-09-19T11:24:31;98723.66;;;25.68;52.85
9740;BME280;4909;42.680;26.324;2023-09-19T11:27:15;98723.13;;;25.90;51.28
9740;BME280;4909;42.680;26.324;2023-09-19T11:29:43;98715.53;;;25.68;51.19
9740;BME280;4909;42.680;26.324;2023-09-19T11:32:10;98733.44;;;25.78;51.46
9740;BME280;4909;42.680;26.324;2023-09-19T11:34:44;98723.41;;;25.79;51.68
9740;BME280;4909;42.680;26.324;2023-09-19T11:40:45;98692.75;;;25.17;51.05
9740;BME280;4909;42.680;26.324;2023-09-19T11:43:30;98718.50;;;25.31;51.94
9740;BME280;4909;42.680;26.324;2023-09-19T11:46:08;98720.78;;;25.43;52.21
9740;BME280;4909;42.680;26.324;2023-09-19T11:48:38;98717.94;;;25.53;51.91
9740;BME280;4909;42.680;26.324;2023-09-19T11:51:21;98696.31;;;25.43;52.12
9740;BME280;4909;42.680;26.324;2023-09-19T11:53:53;98698.28;;;25.33;51.33
9740;BME280;4909;42.680;26.324;2023-09-19T11:56:21;98706.06;;;25.28;52.44
9740;BME280;4909;42.680;26.324;2023-09-19T11:58:52;98689.47;;;25.31;51.55
9740;BME280;4909;42.680;26.324;2023-09-19T12:01:24;98689.53;;;25.47;50.99
9740;BME280;4909;42.680;26.324;2023-09-19T12:03:55;98698.91;;;25.53;49.73
9740;BME280;4909;42.680;26.324;2023-09-19T12:06:28;98689.16;;;25.42;48.95
9740;BME280;4909;42.680;26.324;2023-09-19T12:08:57;98686.03;;;25.29;50.42
9740;BME280;4909;42.680;26.324;2023-09-19T12:11:27;98674.22;;;25.38;50.05
9740;BME280;4909;42.680;26.324;2023-09-19T12:13:56;98687.53;;;25.49;50.84
9740;BME280;4909;42.680;26.324;2023-09-19T12:16:26;98677.09;;;25.63;50.46
9740;BME280;4909;42.680;26.324;2023-09-19T12:18:56;98655.59;;;25.51;48.98
9740;BME280;4909;42.680;26.324;2023-09-19T12:21:29;98667.50;;;25.50;49.48
9740;BME280;4909;42.680;26.324;2023-09-19T12:23:58;98667.16;;;25.53;50.22
9740;BME280;4909;42.680;26.324;2023-09-19T12:26:26;98665.56;;;25.61;47.41
9740;BME280;4909;42.680;26.324;2023-09-19T12:28:54;98668.41;;;25.59;47.26
9740;BME280;4909;42.680;26.324;2023-09-19T12:31:22;98666.56;;;25.60;46.60
9740;BME280;4909;42.680;26.324;2023-09-19T12:33:55;98664.94;;;25.49;46.85
9740;BME280;4909;42.680;26.324;2023-09-19T12:36:23;98655.16;;;25.30;46.18
9740;BME280;4909;42.680;26.324;2023-09-19T12:38:56;98665.53;;;25.35;46.42
9740;BME280;4909;42.680;26.324;2023-09-19T12:41:24;98660.63;;;25.38;47.03
9740;BME280;4909;42.680;26.324;2023-09-19T12:43:51;98648.09;;;25.45;45.81
9740;BME280;4909;42.680;26.324;2023-09-19T12:46:20;98659.41;;;25.59;45.80
9740;BME280;4909;42.680;26.324;2023-09-19T12:49:14;98638.13;;;25.28;46.22
9740;BME280;4909;42.680;26.324;2023-09-19T12:51:42;98650.09;;;25.35;44.24
9740;BME280;4909;42.680;26.324;2023-09-19T12:54:11;98633.06;;;25.33;44.46
9740;BME280;4909;42.680;26.324;2023-09-19T12:56:40;98635.56;;;25.52;43.84
9740;BME280;4909;42.680;26.324;2023-09-19T12:59:11;98632.56;;;25.56;43.90
9740;BME280;4909;42.680;26.324;2023-09-19T13:01:39;98635.09;;;25.57;43.93
9740;BME280;4909;42.680;26.324;2023-09-19T13:04:14;98627.41;;;25.52;44.58
9740;BME280;4909;42.680;26.324;2023-09-19T13:06:43;98625.00;;;25.41;44.55
9740;BME280;4909;42.680;26.324;2023-09-19T13:09:12;98617.28;;;25.37;45.24
9740;BME280;4909;42.680;26.324;2023-09-19T13:11:40;98606.53;;;25.27;44.90
9740;BME280;4909;42.680;26.324;2023-09-19T13:14:17;98615.41;;;25.29;44.59
9740;BME280;4909;42.680;26.324;2023-09-19T13:16:59;98628.66;;;25.32;45.25
9740;BME280;4909;42.680;26.324;2023-09-19T13:19:40;98625.44;;;25.37;44.80
9740;BME280;4909;42.680;26.324;2023-09-19T13:22:37;98620.19;;;25.35;44.97
9740;BME280;4909;42.680;26.324;2023-09-19T13:25:13;98612.06;;;25.43;45.60
9740;BME280;4909;42.680;26.324;2023-09-19T13:27:44;98605.00;;;25.50;43.12
9740;BME280;4909;42.680;26.324;2023-09-19T13:30:12;98610.06;;;25.45;43.35
9740;BME280;4909;42.680;26.324;2023-09-19T13:32:39;98605.41;;;25.38;43.08
9740;BME280;4909;42.680;26.324;2023-09-19T13:35:06;98609.13;;;25.37;43.46